This is the latest recevied weather packets stored in our database for station/object PY2UEP-1. If no packets are shown the sender has not sent any weather packets the latest 10 day(s).
| Time | Temp. | Humidity | Pressure | Rain* | Wind** | Luminosity | Snow |
|---|---|---|---|---|---|---|---|
| 1788078905 | 23.33° C | 73% | 1014.9 hPa | 0 mm | - | - | - |
| 1788078605 | 23.33° C | 72% | 1014.9 hPa | 0 mm | - | - | - |
| 1788078305 | 23.89° C | 70% | 1014.8 hPa | 0 mm | - | - | - |
| 1788078005 | 23.89° C | 69% | 1014.8 hPa | 0 mm | - | - | - |
| 1788077705 | 24.44° C | 67% | 1014.7 hPa | 0 mm | - | - | - |
| 1788077405 | 25° C | 65% | 1014.7 hPa | 0 mm | - | - | - |
| 1788077105 | 25° C | 65% | 1014.4 hPa | 0 mm | - | - | - |
| 1788076805 | 24.44° C | 66% | 1014.4 hPa | 0 mm | - | - | - |
| 1788076505 | 24.44° C | 67% | 1014.3 hPa | 0 mm | - | - | - |
| 1788076205 | 24.44° C | 67% | 1014.3 hPa | 0 mm | - | - | - |
| 1788075905 | 24.44° C | 68% | 1014.2 hPa | 0 mm | - | - | - |
| 1788075605 | 24.44° C | 68% | 1014.2 hPa | 0 mm | - | - | - |
| 1788075305 | 24.44° C | 67% | 1014.2 hPa | 0 mm | - | - | - |
| 1788075005 | 23.89° C | 68% | 1014.2 hPa | 0 mm | - | - | - |
| 1788074705 | 23.33° C | 72% | 1014 hPa | 0 mm | - | - | - |
| 1788074405 | 23.33° C | 72% | 1014.2 hPa | 0 mm | - | - | - |
| 1788074105 | 23.33° C | 72% | 1014.2 hPa | 0 mm | - | - | - |
| 1788073805 | 23.33° C | 71% | 1014.2 hPa | 0 mm | - | - | - |
| 1788073505 | 23.89° C | 70% | 1014.2 hPa | 0 mm | - | - | - |
| 1788073205 | 23.89° C | 69% | 1014.2 hPa | 0 mm | - | - | - |
| 1788072905 | 23.89° C | 69% | 1014.2 hPa | 0 mm | - | - | - |
| 1788072605 | 23.89° C | 69% | 1014.2 hPa | 0 mm | - | - | - |
| 1788072305 | 23.89° C | 70% | 1014.2 hPa | 0 mm | - | - | - |
| 1788072005 | 23.89° C | 70% | 1014.2 hPa | 0 mm | - | - | - |
| 1788071705 | 23.33° C | 72% | 1014.2 hPa | 0 mm | - | - | - |
* Rain since midnight (hover to see other rain measurements)
** Current wind speed in m/s (hover to see current wind gust speed)